Time;durP1;ratioP1;P1;durP2;ratioP2;P2;SDS_P1;SDS_P2;PMS_P1;PMS_P2;Temp;Humidity;BMP_temperature;BMP_pressure;BME280_temperature;BME280_humidity;BME280_pressure;Samples;Min_cycle;Max_cycle;Signal;HPM_P1;HPM_P2
2023/06/11 00:01:42;;;;;;;;;;;;;;;21.84;75.08;99729.50;5052297;28;19912;-64
2023/06/11 00:04:08;;;;;;;;;;;;;;;21.81;74.52;99729.75;5070615;28;19966;-63
2023/06/11 00:06:33;;;;;;;;;;;;;;;21.84;74.70;99731.34;5070248;28;20142;-64
2023/06/11 00:08:58;;;;;;;;;;;;;;;21.86;74.25;99726.69;5069612;28;19920;-64
2023/06/11 00:11:23;;;;;;;;;;;;;;;21.85;74.20;99727.66;5071133;28;19920;-64
2023/06/11 00:13:49;;;;;;;;;;;;;;;21.83;74.14;99733.19;5053755;28;19965;-64
2023/06/11 00:16:15;;;;;;;;;;;;;;;21.78;74.38;99739.97;5060607;28;19925;-64
2023/06/11 00:18:41;;;;;;;;;;;;;;;21.71;75.08;99744.16;5072398;28;19956;-64
2023/06/11 00:21:10;;;;;;;;;;;;;;;21.63;75.17;99738.50;5071357;28;19943;-64
2023/06/11 00:23:36;;;;;;;;;;;;;;;21.56;75.80;99734.59;5054160;28;20283;-64
2023/06/11 00:26:04;;;;;;;;;;;;;;;21.48;76.36;99737.06;5053150;28;19965;-64
2023/06/11 00:28:29;;;;;;;;;;;;;;;21.50;76.42;99737.81;5070493;28;20254;-64
2023/06/11 00:30:54;;;;;;;;;;;;;;;21.49;76.24;99730.66;5071331;28;19930;-64
2023/06/11 00:33:20;;;;;;;;;;;;;;;21.44;76.44;99732.88;5070445;28;19924;-64
2023/06/11 00:35:45;;;;;;;;;;;;;;;21.37;76.60;99732.50;5071931;28;19921;-64
2023/06/11 00:38:11;;;;;;;;;;;;;;;21.32;76.82;99736.56;5071809;28;19989;-64
2023/06/11 00:40:36;;;;;;;;;;;;;;;21.28;76.75;99735.97;5071297;28;20671;-65
2023/06/11 00:43:02;;;;;;;;;;;;;;;21.21;77.16;99739.28;5071904;28;19913;-64
2023/06/11 00:45:28;;;;;;;;;;;;;;;21.19;77.26;99746.66;5052871;28;19931;-65
2023/06/11 00:47:53;;;;;;;;;;;;;;;21.18;77.30;99744.94;5049584;28;19926;-65
2023/06/11 00:50:19;;;;;;;;;;;;;;;21.19;77.84;99738.53;5070983;28;20403;-65
2023/06/11 00:52:45;;;;;;;;;;;;;;;21.15;77.38;99737.06;5071471;28;19982;-64
2023/06/11 00:55:11;;;;;;;;;;;;;;;21.14;77.84;99743.44;5051088;28;20281;-64
2023/06/11 00:57:40;;;;;;;;;;;;;;;21.09;78.01;99735.72;5071366;28;20007;-64
2023/06/11 01:00:38;;;;;;;;;;;;;;;21.05;77.85;99736.09;5056143;28;20360;-64
2023/06/11 01:03:07;;;;;;;;;;;;;;;21.00;77.97;99741.00;5031527;28;19928;-68
2023/06/11 01:05:36;;;;;;;;;;;;;;;20.98;77.92;99745.66;5039189;28;19916;-68
2023/06/11 01:08:04;;;;;;;;;;;;;;;20.91;78.76;99732.59;5050131;28;20268;-69
2023/06/11 01:10:29;;;;;;;;;;;;;;;20.84;78.62;99731.34;5036149;28;19916;-69
2023/06/11 01:12:54;;;;;;;;;;;;;;;20.79;79.36;99740.81;5050432;28;19965;-68
2023/06/11 01:15:20;;;;;;;;;;;;;;;20.77;79.24;99740.09;5050731;28;20601;-68
2023/06/11 01:17:50;;;;;;;;;;;;;;;20.76;79.87;99741.91;5049490;28;19917;-68
2023/06/11 01:20:18;;;;;;;;;;;;;;;20.69;80.28;99742.53;5050924;28;19964;-67
2023/06/11 01:22:54;;;;;;;;;;;;;;;20.61;80.58;99740.41;5051081;28;19917;-69
2023/06/11 01:25:25;;;;;;;;;;;;;;;20.54;80.99;99733.75;5049843;28;19928;-69
2023/06/11 01:28:02;;;;;;;;;;;;;;;20.47;80.94;99742.47;5049323;28;19925;-68
2023/06/11 01:30:28;;;;;;;;;;;;;;;20.43;81.01;99747.25;5049790;28;19912;-68
2023/06/11 01:32:57;;;;;;;;;;;;;;;20.40;81.34;99739.38;5029522;28;19927;-68
2023/06/11 01:35:23;;;;;;;;;;;;;;;20.35;82.14;99733.47;5048225;28;19920;-67
2023/06/11 01:37:55;;;;;;;;;;;;;;;20.30;81.93;99741.06;5045799;28;19917;-67
2023/06/11 01:40:20;;;;;;;;;;;;;;;20.28;82.65;99743.00;5030246;28;19959;-68
2023/06/11 01:42:45;;;;;;;;;;;;;;;20.26;82.53;99739.56;5046915;28;19964;-68
2023/06/11 01:45:11;;;;;;;;;;;;;;;20.21;83.04;99755.28;5048269;28;20332;-70
2023/06/11 01:47:36;;;;;;;;;;;;;;;20.17;83.13;99752.91;5047910;28;19920;-69
2023/06/11 01:50:02;;;;;;;;;;;;;;;20.10;83.81;99757.88;5033198;28;19995;-69
2023/06/11 01:52:28;;;;;;;;;;;;;;;20.06;83.42;99753.72;5049645;28;20007;-68
2023/06/11 01:54:53;;;;;;;;;;;;;;;20.05;83.96;99757.38;5050391;28;19920;-68
2023/06/11 01:57:18;;;;;;;;;;;;;;;20.05;84.05;99757.38;5049447;28;20444;-69
2023/06/11 01:59:43;;;;;;;;;;;;;;;20.04;83.43;99762.88;5061790;28;19928;-69
2023/06/11 02:02:09;;;;;;;;;;;;;;;20.01;84.04;99761.28;5070078;28;19962;-69
2023/06/11 02:04:34;;;;;;;;;;;;;;;19.98;83.59;99764.22;5069397;28;19946;-69
2023/06/11 02:06:59;;;;;;;;;;;;;;;19.96;84.02;99763.47;5070512;28;19923;-69
2023/06/11 02:09:25;;;;;;;;;;;;;;;19.91;84.30;99749.47;5069387;28;20116;-68
2023/06/11 02:11:50;;;;;;;;;;;;;;;19.85;84.52;99766.09;5069907;28;19924;-67
2023/06/11 02:14:15;;;;;;;;;;;;;;;19.74;84.83;99763.34;5069208;28;19920;-68
2023/06/11 02:16:40;;;;;;;;;;;;;;;19.69;85.68;99757.41;5068642;28;20452;-68
2023/06/11 02:19:07;;;;;;;;;;;;;;;19.71;85.54;99766.25;5050939;28;19920;-69
2023/06/11 02:21:32;;;;;;;;;;;;;;;19.71;85.58;99758.16;5068061;28;19931;-68
2023/06/11 02:23:57;;;;;;;;;;;;;;;19.70;85.01;99760.97;5069102;28;19917;-68
2023/06/11 02:26:23;;;;;;;;;;;;;;;19.71;85.18;99763.56;5068982;28;19938;-68
2023/06/11 02:28:48;;;;;;;;;;;;;;;19.66;85.71;99749.53;5068119;28;19920;-68
2023/06/11 02:31:13;;;;;;;;;;;;;;;19.65;85.53;99759.47;5069919;28;19913;-68
2023/06/11 02:33:38;;;;;;;;;;;;;;;19.66;86.29;99760.34;5068078;28;20016;-68
2023/06/11 02:36:04;;;;;;;;;;;;;;;19.61;86.16;99766.09;5068550;28;20364;-68
2023/06/11 02:38:29;;;;;;;;;;;;;;;19.58;87.05;99760.06;5067911;28;19920;-67
2023/06/11 02:40:55;;;;;;;;;;;;;;;19.55;87.07;99763.81;5068990;28;19912;-67
2023/06/11 02:43:20;;;;;;;;;;;;;;;19.54;86.89;99772.03;5067439;28;20307;-66
2023/06/11 02:45:45;;;;;;;;;;;;;;;19.53;87.46;99771.19;5068878;28;19956;-68
2023/06/11 02:48:10;;;;;;;;;;;;;;;19.42;88.34;99772.94;5068365;28;19917;-68
2023/06/11 02:50:36;;;;;;;;;;;;;;;19.44;88.49;99779.06;5069769;28;19916;-67
2023/06/11 02:53:01;;;;;;;;;;;;;;;19.43;88.35;99771.94;5069541;28;19920;-68
2023/06/11 02:55:26;;;;;;;;;;;;;;;19.45;88.63;99770.00;5068996;28;20372;-69
2023/06/11 02:57:51;;;;;;;;;;;;;;;19.44;88.70;99770.97;5069003;28;20019;-68
2023/06/11 03:00:17;;;;;;;;;;;;;;;19.43;89.34;99778.22;5068616;28;20438;-69
2023/06/11 03:02:42;;;;;;;;;;;;;;;19.46;88.85;99774.41;5068441;28;19920;-68
2023/06/11 03:05:07;;;;;;;;;;;;;;;19.46;89.00;99772.59;5051481;28;20376;-68
2023/06/11 03:07:33;;;;;;;;;;;;;;;19.48;88.63;99776.06;5068934;28;19977;-68
2023/06/11 03:09:58;;;;;;;;;;;;;;;19.48;88.46;99776.06;5068634;28;20030;-68
2023/06/11 03:12:23;;;;;;;;;;;;;;;19.48;88.67;99773.34;5072783;28;20014;-68
2023/06/11 03:14:49;;;;;;;;;;;;;;;19.50;89.64;99775.94;5071697;28;19920;-69
2023/06/11 03:17:14;;;;;;;;;;;;;;;19.51;89.53;99774.94;5073059;28;20338;-68
2023/06/11 03:19:40;;;;;;;;;;;;;;;19.52;89.76;99779.41;5072265;28;19917;-70
2023/06/11 03:22:05;;;;;;;;;;;;;;;19.51;89.55;99772.25;5071613;28;19927;-69
2023/06/11 03:24:30;;;;;;;;;;;;;;;19.50;89.80;99786.72;5072276;28;19916;-69
2023/06/11 03:26:55;;;;;;;;;;;;;;;19.49;89.34;99782.28;5053345;28;19923;-70
2023/06/11 03:29:21;;;;;;;;;;;;;;;19.51;89.53;99777.66;5072347;28;19939;-68
2023/06/11 03:31:46;;;;;;;;;;;;;;;19.51;88.93;99783.03;5072158;28;19913;-70
2023/06/11 03:34:11;;;;;;;;;;;;;;;19.50;89.30;99786.72;5070438;28;19971;-69
2023/06/11 03:36:37;;;;;;;;;;;;;;;19.48;89.69;99783.28;5053185;28;19990;-70
2023/06/11 03:39:02;;;;;;;;;;;;;;;19.48;89.51;99777.88;5070947;28;19917;-70
2023/06/11 03:41:27;;;;;;;;;;;;;;;19.43;90.47;99774.66;5071099;28;19921;-70
2023/06/11 03:43:53;;;;;;;;;;;;;;;19.41;90.13;99776.59;5071341;28;19935;-70
2023/06/11 03:46:21;;;;;;;;;;;;;;;19.45;90.55;99778.09;5070920;28;19965;-71
2023/06/11 03:48:46;;;;;;;;;;;;;;;19.50;90.14;99786.72;5071539;28;19920;-69
2023/06/11 03:51:11;;;;;;;;;;;;;;;19.53;90.03;99781.09;5072471;28;20605;-70
2023/06/11 03:53:37;;;;;;;;;;;;;;;19.55;90.00;99784.56;5071835;28;19920;-70
2023/06/11 03:56:02;;;;;;;;;;;;;;;19.56;89.78;99791.66;5072548;28;19920;-71
2023/06/11 03:58:27;;;;;;;;;;;;;;;19.57;90.02;99793.41;5070380;28;19923;-70
2023/06/11 04:00:52;;;;;;;;;;;;;;;19.59;90.32;99802.22;5052665;28;19917;-69
2023/06/11 04:03:18;;;;;;;;;;;;;;;19.59;90.17;99803.09;5052596;28;19919;-69
2023/06/11 04:05:43;;;;;;;;;;;;;;;19.61;90.04;99805.69;5051693;28;20439;-69
2023/06/11 04:08:08;;;;;;;;;;;;;;;19.64;90.09;99800.06;5052293;28;19929;-67
2023/06/11 04:10:34;;;;;;;;;;;;;;;19.69;89.87;99806.00;5034430;28;20313;-68
2023/06/11 04:12:59;;;;;;;;;;;;;;;19.75;90.02;99808.25;5052511;28;20729;-69
2023/06/11 04:15:25;;;;;;;;;;;;;;;19.77;89.49;99800.88;5051614;28;19925;-68
2023/06/11 04:17:50;;;;;;;;;;;;;;;19.81;89.88;99804.22;5051777;28;19920;-68
2023/06/11 04:20:16;;;;;;;;;;;;;;;19.81;89.62;99802.41;5052118;28;20371;-67
2023/06/11 04:22:41;;;;;;;;;;;;;;;19.84;89.80;99807.56;5051468;28;19916;-68
2023/06/11 04:25:06;;;;;;;;;;;;;;;19.89;89.69;99810.78;5051423;28;19927;-67
2023/06/11 04:27:33;;;;;;;;;;;;;;;19.91;90.40;99814.25;5051326;28;20322;-67
2023/06/11 04:29:59;;;;;;;;;;;;;;;19.93;90.55;99822.22;5051796;28;20426;-68
2023/06/11 04:32:26;;;;;;;;;;;;;;;20.01;90.89;99819.81;5052203;28;19912;-69
2023/06/11 04:34:52;;;;;;;;;;;;;;;20.08;90.48;99821.09;5051657;28;19920;-68
2023/06/11 04:37:17;;;;;;;;;;;;;;;20.12;90.74;99823.44;5050311;28;19928;-68
2023/06/11 04:39:43;;;;;;;;;;;;;;;20.19;90.56;99822.06;5051806;28;19913;-68
2023/06/11 04:42:08;;;;;;;;;;;;;;;20.30;89.57;99826.63;5050971;28;19922;-68
2023/06/11 04:44:36;;;;;;;;;;;;;;;20.39;89.58;99826.84;5051533;28;20019;-67
2023/06/11 04:47:05;;;;;;;;;;;;;;;20.50;89.74;99824.16;5051654;28;19913;-68
2023/06/11 04:49:30;;;;;;;;;;;;;;;20.59;88.91;99820.75;5050550;28;20270;-69
2023/06/11 04:51:58;;;;;;;;;;;;;;;20.69;88.04;99824.47;5051527;28;20008;-68
2023/06/11 04:54:23;;;;;;;;;;;;;;;20.79;87.24;99828.19;5051499;28;19928;-68
2023/06/11 04:56:49;;;;;;;;;;;;;;;20.91;86.86;99829.94;5051711;28;19976;-68
2023/06/11 04:59:14;;;;;;;;;;;;;;;20.99;86.53;99837.50;5058716;28;19920;-69
2023/06/11 05:01:46;;;;;;;;;;;;;;;21.07;86.14;99835.03;5070378;28;19917;-67
2023/06/11 05:04:14;;;;;;;;;;;;;;;21.18;84.28;99845.03;5069909;28;19916;-69
2023/06/11 05:06:44;;;;;;;;;;;;;;;21.31;83.78;99843.94;5069981;28;19917;-68
2023/06/11 05:09:12;;;;;;;;;;;;;;;21.43;84.04;99842.13;5053730;28;19913;-69
2023/06/11 05:11:38;;;;;;;;;;;;;;;21.54;83.36;99834.00;5050384;28;20006;-66
2023/06/11 05:14:03;;;;;;;;;;;;;;;21.72;82.50;99843.34;5066488;28;20675;-67
2023/06/11 05:16:28;;;;;;;;;;;;;;;21.96;80.42;99842.22;5069524;28;19991;-69
2023/06/11 05:18:54;;;;;;;;;;;;;;;22.09;79.02;99842.09;5074016;28;20012;-69
2023/06/11 05:21:19;;;;;;;;;;;;;;;22.21;78.63;99840.22;5069928;28;19921;-67
2023/06/11 05:23:44;;;;;;;;;;;;;;;22.28;78.25;99845.00;5070544;28;20355;-67
2023/06/11 05:26:12;;;;;;;;;;;;;;;22.34;78.67;99841.75;5054727;28;19924;-68
2023/06/11 05:28:38;;;;;;;;;;;;;;;22.41;77.99;99850.25;5051169;28;19913;-66
2023/06/11 05:31:05;;;;;;;;;;;;;;;22.49;77.21;99845.91;5056279;28;19916;-68
2023/06/11 05:33:30;;;;;;;;;;;;;;;22.61;77.00;99841.34;5069799;28;19920;-68
2023/06/11 05:35:56;;;;;;;;;;;;;;;22.69;76.52;99853.25;5070206;28;20399;-67
2023/06/11 05:38:21;;;;;;;;;;;;;;;22.80;75.70;99855.91;5070732;28;19920;-67
2023/06/11 05:40:47;;;;;;;;;;;;;;;22.89;75.07;99849.72;5071352;28;19999;-63
2023/06/11 05:43:12;;;;;;;;;;;;;;;22.98;75.85;99848.91;5068882;28;20380;-63
2023/06/11 05:45:45;;;;;;;;;;;;;;;23.07;75.28;99847.25;5070705;28;19919;-63
2023/06/11 05:48:11;;;;;;;;;;;;;;;23.10;74.76;99855.13;5070751;28;19917;-63
2023/06/11 05:50:36;;;;;;;;;;;;;;;23.23;73.85;99847.63;5061342;28;19923;-63
2023/06/11 05:53:01;;;;;;;;;;;;;;;23.40;72.99;99852.50;5064128;28;19999;-62
2023/06/11 05:55:27;;;;;;;;;;;;;;;23.52;72.31;99851.44;5070895;28;19966;-63
2023/06/11 05:57:52;;;;;;;;;;;;;;;23.67;71.92;99851.91;5069885;28;20467;-63
2023/06/11 06:00:17;;;;;;;;;;;;;;;23.78;72.21;99854.53;5055967;28;20012;-63
2023/06/11 06:02:43;;;;;;;;;;;;;;;23.90;71.49;99858.88;5054227;28;19927;-63
2023/06/11 06:05:08;;;;;;;;;;;;;;;23.99;72.09;99867.09;5070420;28;19962;-63
2023/06/11 06:07:34;;;;;;;;;;;;;;;24.18;71.21;99866.28;5070453;28;19920;-63
2023/06/11 06:10:00;;;;;;;;;;;;;;;24.29;70.59;99866.16;5069649;28;19920;-63
2023/06/11 06:12:25;;;;;;;;;;;;;;;24.42;70.27;99861.31;5070186;28;19932;-63
2023/06/11 06:14:50;;;;;;;;;;;;;;;24.52;68.70;99868.50;5070032;28;20011;-63
2023/06/11 06:17:15;;;;;;;;;;;;;;;24.61;68.74;99870.34;5051533;28;19916;-63
2023/06/11 06:19:41;;;;;;;;;;;;;;;24.79;68.08;99870.56;5050401;28;19923;-63
2023/06/11 06:22:07;;;;;;;;;;;;;;;24.90;67.44;99867.69;5051963;28;19928;-63
2023/06/11 06:24:32;;;;;;;;;;;;;;;24.96;66.82;99867.09;5050569;28;19962;-63
2023/06/11 06:26:58;;;;;;;;;;;;;;;25.06;66.88;99867.13;5050364;28;19969;-63
2023/06/11 06:29:23;;;;;;;;;;;;;;;25.30;67.44;99875.66;5062481;28;20001;-63
2023/06/11 06:31:50;;;;;;;;;;;;;;;25.42;66.38;99875.38;5054409;28;19952;-63
2023/06/11 06:34:15;;;;;;;;;;;;;;;25.50;66.34;99877.38;5049996;28;20470;-63
2023/06/11 06:36:40;;;;;;;;;;;;;;;25.58;64.30;99875.63;5058032;28;19952;-63
2023/06/11 06:39:06;;;;;;;;;;;;;;;25.63;62.44;99889.66;5059601;28;19928;-63
2023/06/11 06:41:31;;;;;;;;;;;;;;;25.70;64.12;99888.06;5059510;28;19970;-63
2023/06/11 06:43:56;;;;;;;;;;;;;;;25.81;64.29;99884.31;5067663;28;19917;-63
2023/06/11 06:46:21;;;;;;;;;;;;;;;25.96;62.71;99885.53;5056366;28;19924;-63
2023/06/11 06:48:47;;;;;;;;;;;;;;;26.11;62.92;99894.09;5049055;28;19923;-63
2023/06/11 06:51:12;;;;;;;;;;;;;;;26.27;63.06;99889.72;5048924;28;19912;-63
2023/06/11 06:53:37;;;;;;;;;;;;;;;26.40;61.39;99892.94;5050638;28;19924;-63
2023/06/11 06:56:05;;;;;;;;;;;;;;;26.55;60.90;99890.53;5068996;28;19962;-63
2023/06/11 06:58:31;;;;;;;;;;;;;;;26.76;60.38;99896.59;5070380;28;20395;-63
2023/06/11 07:00:56;;;;;;;;;;;;;;;26.97;60.93;99889.81;5069868;28;20019;-63
2023/06/11 07:03:22;;;;;;;;;;;;;;;27.11;58.72;99897.44;5051241;28;20003;-63
2023/06/11 07:05:48;;;;;;;;;;;;;;;27.22;58.65;99907.25;5069573;28;20365;-63
2023/06/11 07:08:13;;;;;;;;;;;;;;;27.39;58.65;99894.63;5060350;28;19924;-63
2023/06/11 07:10:47;;;;;;;;;;;;;;;27.44;57.38;99901.34;5069814;28;19928;-63
2023/06/11 07:13:12;;;;;;;;;;;;;;;27.56;58.13;99896.47;5069457;28;20372;-63
2023/06/11 07:15:38;;;;;;;;;;;;;;;27.73;57.34;99899.13;5067350;28;20027;-63
2023/06/11 07:18:03;;;;;;;;;;;;;;;27.79;56.63;99893.00;5069881;28;20273;-63
2023/06/11 07:20:28;;;;;;;;;;;;;;;28.07;56.24;99894.56;5069278;28;19924;-63
2023/06/11 07:22:54;;;;;;;;;;;;;;;28.26;57.02;99897.06;5069696;28;19970;-63
2023/06/11 07:25:19;;;;;;;;;;;;;;;28.50;56.31;99892.72;5068973;28;20382;-62
2023/06/11 07:27:44;;;;;;;;;;;;;;;28.71;53.23;99904.06;5052064;28;19925;-63
2023/06/11 07:30:10;;;;;;;;;;;;;;;28.76;54.10;99898.94;5061113;28;19917;-63
2023/06/11 07:32:36;;;;;;;7.37;4.47;;;;;;;29.08;54.43;99899.00;5068856;28;20670;-63
2023/06/11 07:35:01;;;;;;;7.00;3.50;;;;;;;29.33;53.15;99901.59;5067896;28;20036;-63
2023/06/11 07:37:27;;;;;;;9.70;4.20;;;;;;;29.64;51.13;99897.09;5068156;28;20036;-63
2023/06/11 07:39:52;;;;;;;5.75;3.35;;;;;;;29.98;49.44;99905.13;5068223;28;20031;-63
2023/06/11 07:42:17;;;;;;;5.60;3.80;;;;;;;29.99;49.64;99909.56;5067196;28;20102;-63
2023/06/11 07:44:43;;;;;;;5.57;3.75;;;;;;;30.29;49.36;99917.06;5068128;28;20035;-63
2023/06/11 07:47:08;;;;;;;6.68;3.97;;;;;;;30.48;48.66;99908.38;5067946;28;20111;-63
2023/06/11 07:49:34;;;;;;;5.78;3.83;;;;;;;30.75;48.34;99912.53;5068648;28;20024;-63
2023/06/11 07:51:59;;;;;;;4.90;3.65;;;;;;;30.92;46.57;99897.69;5069119;28;20059;-63
2023/06/11 07:54:24;;;;;;;5.60;3.72;;;;;;;31.06;46.02;99902.38;5069040;28;20024;-63
2023/06/11 07:56:50;;;;;;;7.03;4.20;;;;;;;31.23;46.72;99908.59;5069469;28;20024;-63
2023/06/11 07:59:15;;;;;;;6.85;4.03;;;;;;;31.67;46.03;99902.22;5072679;28;20102;-63
2023/06/11 08:01:41;;;;;;;5.40;3.80;;;;;;;31.89;44.33;99894.97;5071544;28;20024;-63
2023/06/11 08:04:07;;;;;;;6.97;4.07;;;;;;;31.81;44.19;99903.28;5072780;28;20500;-63
2023/06/11 08:06:33;;;;;;;7.65;4.32;;;;;;;31.97;42.97;99900.38;5064110;28;20085;-63
2023/06/11 08:08:58;;;;;;;6.95;4.03;;;;;;;32.26;43.41;99892.09;5067734;28;20032;-63
2023/06/11 08:11:24;;;;;;;5.57;3.78;;;;;;;32.40;42.43;99899.56;5072241;28;20423;-64
2023/06/11 08:13:49;;;;;;;5.80;3.75;;;;;;;32.54;42.54;99901.41;5071171;28;20033;-64
2023/06/11 08:16:18;;;;;;;7.10;4.10;;;;;;;32.43;42.95;99892.78;5071877;28;20032;-64
2023/06/11 08:18:43;;;;;;;6.20;3.65;;;;;;;32.57;42.78;99883.66;5072004;28;20046;-64
2023/06/11 08:21:08;;;;;;;5.53;3.65;;;;;;;32.86;41.68;99889.06;5071324;28;20107;-64
2023/06/11 08:23:35;;;;;;;6.32;3.75;;;;;;;32.96;41.11;99887.75;5071284;28;20012;-64
2023/06/11 08:26:01;;;;;;;6.47;3.92;;;;;;;33.05;41.18;99883.81;5072229;28;20056;-64
2023/06/11 08:28:27;;;;;;;5.07;3.55;;;;;;;33.13;40.99;99888.34;5070024;28;20035;-64
2023/06/11 08:30:54;;;;;;;5.40;3.70;;;;;;;33.22;39.69;99890.78;5072167;28;20044;-64
2023/06/11 08:33:19;;;;;;;5.10;3.47;;;;;;;33.14;39.91;99885.38;5058012;28;20036;-64
2023/06/11 08:35:44;;;;;;;5.78;3.95;;;;;;;33.63;42.55;99879.03;5066901;28;20093;-64
2023/06/11 08:38:11;;;;;;;5.53;3.42;;;;;;;34.07;39.88;99880.44;5071794;28;20032;-64
2023/06/11 08:40:41;;;;;;;6.70;3.85;;;;;;;34.04;39.80;99867.03;5071710;28;20040;-64
2023/06/11 08:43:10;;;;;;;5.97;3.97;;;;;;;34.22;39.28;99877.53;5063825;28;20024;-64
2023/06/11 08:45:36;;;;;;;5.63;3.60;;;;;;;34.23;38.41;99874.59;5072345;28;20037;-64
2023/06/11 08:48:02;;;;;;;5.18;3.60;;;;;;;34.41;39.67;99872.16;5071568;28;20032;-64
2023/06/11 08:50:29;;;;;;;5.82;3.67;;;;;;;34.52;37.87;99870.69;5071942;28;20042;-64
2023/06/11 08:52:56;;;;;;;6.57;4.00;;;;;;;34.53;38.76;99872.44;5072090;28;20025;-64
2023/06/11 08:55:22;;;;;;;5.70;4.07;;;;;;;34.67;38.72;99874.16;5070898;28;20028;-64
2023/06/11 08:57:50;;;;;;;6.03;3.53;;;;;;;34.74;39.57;99877.81;5071775;28;20480;-64
2023/06/11 09:00:16;;;;;;;5.93;3.53;;;;;;;34.44;37.91;99869.00;5061294;28;20416;-64
2023/06/11 09:02:42;;;;;;;5.10;3.05;;;;;;;33.91;36.40;99849.50;5036096;28;20037;-64
2023/06/11 09:05:08;;;;;;;4.70;3.13;;;;;;;34.12;36.69;99855.00;5043919;28;20040;-64
2023/06/11 09:07:34;;;;;;;4.57;2.88;;;;;;;34.66;37.81;99858.66;5031050;28;20029;-64
2023/06/11 09:10:07;;;;;;;5.70;3.20;;;;;;;34.51;35.65;99871.78;5033392;28;20029;-64
2023/06/11 09:12:32;;;;;;;4.88;2.83;;;;;;;33.88;36.03;99860.97;5033206;28;20177;-64
2023/06/11 09:14:58;;;;;;;6.07;3.30;;;;;;;34.12;38.11;99861.34;5047479;28;20030;-65
2023/06/11 09:17:25;;;;;;;4.30;2.78;;;;;;;33.73;36.57;99855.56;5035919;28;20106;-64
2023/06/11 09:19:54;;;;;;;4.50;2.97;;;;;;;33.95;36.40;99856.38;5049587;28;20032;-64
2023/06/11 09:22:26;;;;;;;4.32;2.88;;;;;;;33.71;35.89;99848.56;5050404;28;20025;-64
2023/06/11 09:24:52;;;;;;;3.95;2.85;;;;;;;33.30;35.91;99854.78;5038133;28;20475;-64
2023/06/11 09:27:20;;;;;;;4.32;2.58;;;;;;;33.64;37.29;99851.22;5036640;28;20049;-64
2023/06/11 09:29:46;;;;;;;5.68;3.20;;;;;;;34.10;37.10;99862.63;5042729;28;20400;-64
2023/06/11 09:32:12;;;;;;;7.85;3.40;;;;;;;34.25;35.97;99855.88;5037039;28;20047;-65
2023/06/11 09:34:37;;;;;;;4.45;2.80;;;;;;;34.60;35.52;99859.47;5046902;28;20482;-65
2023/06/11 09:37:03;;;;;;;4.18;2.53;;;;;;;34.81;34.17;99864.00;5038676;28;20030;-65
2023/06/11 09:39:30;;;;;;;4.38;2.95;;;;;;;34.11;34.13;99870.69;5045228;28;20115;-64
2023/06/11 09:41:55;;;;;;;6.00;3.60;;;;;;;33.80;34.09;99863.88;5043959;28;20246;-64
2023/06/11 09:44:23;;;;;;;4.22;2.78;;;;;;;34.17;35.30;99869.00;5033602;28;20040;-64
2023/06/11 09:46:49;;;;;;;5.55;3.42;;;;;;;34.79;34.68;99864.22;5037270;28;20509;-65
2023/06/11 09:49:16;;;;;;;4.90;3.05;;;;;;;34.86;33.87;99869.75;5032150;28;20025;-64
2023/06/11 09:51:42;;;;;;;4.45;3.00;;;;;;;34.52;34.30;99867.94;5043258;28;20448;-64
2023/06/11 09:54:09;;;;;;;5.55;3.17;;;;;;;33.77;34.41;99861.53;5031103;28;20112;-64
2023/06/11 09:56:35;;;;;;;3.88;2.70;;;;;;;33.46;36.51;99863.84;5048300;28;20036;-64
2023/06/11 09:59:02;;;;;;;5.43;2.85;;;;;;;33.98;35.76;99867.00;5053417;28;20052;-64
2023/06/11 10:01:29;;;;;;;5.70;2.85;;;;;;;34.33;35.84;99863.16;5058377;28;20036;-64
2023/06/11 10:03:56;;;;;;;5.03;2.95;;;;;;;35.29;36.19;99855.38;5069763;28;20025;-64
2023/06/11 10:06:28;;;;;;;4.55;2.70;;;;;;;35.73;33.27;99860.28;5043795;28;20485;-65
2023/06/11 10:08:57;;;;;;;3.97;2.67;;;;;;;35.83;33.12;99861.53;5045991;28;20035;-64
2023/06/11 10:11:23;;;;;;;4.03;2.90;;;;;;;35.70;33.86;99864.34;5039015;28;20063;-64
2023/06/11 10:13:58;;;;;;;4.22;2.75;;;;;;;35.27;32.03;99857.50;5043991;28;20076;-65
2023/06/11 10:16:23;;;;;;;4.80;3.00;;;;;;;34.88;33.23;99864.88;5012437;28;20051;-64
2023/06/11 10:18:51;;;;;;;12.02;3.25;;;;;;;34.44;34.54;99859.84;5032522;28;20024;-64
2023/06/11 10:21:18;;;;;;;5.15;2.90;;;;;;;34.20;35.12;99857.59;5046667;28;20033;-65
2023/06/11 10:23:50;;;;;;;7.72;3.03;;;;;;;33.95;35.73;99860.00;5044076;28;20060;-64
2023/06/11 10:26:15;;;;;;;7.00;3.00;;;;;;;34.54;35.63;99861.16;5033847;28;20034;-64
2023/06/11 10:28:48;;;;;;;7.15;2.97;;;;;;;34.80;34.08;99854.00;5029172;28;20530;-64
2023/06/11 10:31:25;;;;;;;6.32;2.72;;;;;;;34.90;34.22;99849.81;5035437;28;20044;-64
2023/06/11 10:33:51;;;;;;;3.67;2.45;;;;;;;35.64;35.03;99856.91;5037020;28;20040;-64
2023/06/11 10:36:26;;;;;;;5.20;2.58;;;;;;;34.88;33.04;99851.88;5030626;28;20059;-64
2023/06/11 10:39:03;;;;;;;6.78;3.20;;;;;;;34.47;34.12;99860.28;5032354;28;20021;-64
2023/06/11 10:41:31;;;;;;;5.95;3.00;;;;;;;34.61;34.46;99861.19;5034274;28;20036;-64
2023/06/11 10:43:57;;;;;;;4.03;2.72;;;;;;;35.38;32.92;99859.69;5030742;28;20029;-64
2023/06/11 10:46:23;;;;;;;5.13;2.95;;;;;;;35.44;32.77;99856.06;5030030;28;20025;-64
2023/06/11 10:48:51;;;;;;;4.45;2.97;;;;;;;35.65;33.39;99858.59;5041423;28;20094;-64
2023/06/11 10:51:16;;;;;;;5.55;3.15;;;;;;;35.17;32.50;99856.22;5036318;28;20052;-64
2023/06/11 10:53:42;;;;;;;5.70;2.80;;;;;;;34.87;32.97;99858.50;5029692;28;20029;-64
2023/06/11 10:56:12;;;;;;;5.90;3.03;;;;;;;34.99;32.68;99865.16;5033783;28;20068;-64
2023/06/11 10:58:39;;;;;;;4.07;2.90;;;;;;;34.93;31.05;99857.66;5042836;28;20051;-64
2023/06/11 11:01:06;;;;;;;4.72;2.70;;;;;;;34.20;32.82;99863.09;5029538;28;20033;-63
2023/06/11 11:03:33;;;;;;;5.18;2.90;;;;;;;33.94;33.95;99849.16;5039377;28;20025;-64
2023/06/11 11:05:59;;;;;;;4.15;2.75;;;;;;;34.38;34.18;99852.34;5038846;28;20385;-64
2023/06/11 11:08:25;;;;;;;5.43;2.90;;;;;;;34.82;33.51;99851.88;5045563;28;20035;-63
2023/06/11 11:11:01;;;;;;;4.93;2.78;;;;;;;35.15;33.54;99853.69;5036959;28;20021;-63
2023/06/11 11:13:28;;;;;;;4.32;2.80;;;;;;;34.73;33.05;99853.16;5037152;28;20033;-63
2023/06/11 11:15:53;;;;;;;4.45;3.20;;;;;;;34.42;34.24;99859.19;5031223;28;20033;-64
2023/06/11 11:18:19;;;;;;;5.28;3.10;;;;;;;34.28;33.11;99854.66;5030225;28;20027;-64
2023/06/11 11:20:45;;;;;;;4.18;2.83;;;;;;;35.10;34.19;99834.09;5036467;28;20104;-64
2023/06/11 11:23:10;;;;;;;5.20;3.13;;;;;;;35.17;32.71;99850.69;5043458;28;20025;-64
2023/06/11 11:25:36;;;;;;;6.40;2.95;;;;;;;35.38;32.83;99847.75;5032590;28;20025;-64
2023/06/11 11:28:02;;;;;;;4.38;2.80;;;;;;;35.61;31.42;99850.94;5035422;28;20558;-64
2023/06/11 11:30:29;;;;;;;4.38;2.80;;;;;;;35.30;30.96;99843.25;5029045;28;20112;-64
2023/06/11 11:32:55;;;;;;;4.45;2.90;;;;;;;36.17;29.34;99837.41;5031715;28;20030;-64
2023/06/11 11:35:22;;;;;;;5.82;2.95;;;;;;;36.58;30.82;99836.00;5035265;28;20623;-64
2023/06/11 11:37:51;;;;;;;4.68;3.25;;;;;;;36.44;30.84;99841.81;5037343;28;20803;-63
2023/06/11 11:40:20;;;;;;;4.68;3.30;;;;;;;36.26;31.67;99827.81;5033773;28;20465;-64
2023/06/11 11:42:56;;;;;;;5.53;3.00;;;;;;;36.53;31.49;99837.72;5038206;28;20035;-64
2023/06/11 11:45:29;;;;;;;4.25;2.83;;;;;;;36.47;30.90;99821.97;5039949;28;20575;-64
2023/06/11 11:47:54;;;;;;;5.78;3.25;;;;;;;36.53;30.15;99832.16;5036554;28;20051;-65
2023/06/11 11:50:22;;;;;;;4.00;2.90;;;;;;;35.96;31.35;99829.38;5033679;28;20553;-64
2023/06/11 11:53:08;;;;;;;4.45;3.08;;;;;;;35.77;31.52;99809.81;5035460;28;20025;-65
2023/06/11 11:55:38;;;;;;;4.38;3.08;;;;;;;34.99;30.54;99820.03;5049243;28;20029;-64
2023/06/11 11:58:08;;;;;;;9.20;2.92;;;;;;;35.11;31.58;99818.38;5048268;28;20114;-64
2023/06/11 12:00:44;;;;;;;5.00;3.28;;;;;;;35.54;32.05;99814.09;5044649;28;20146;-64
2023/06/11 12:03:10;;;;;;;4.47;2.92;;;;;;;36.18;29.97;99811.44;5029511;28;20052;-64
2023/06/11 12:05:37;;;;;;;5.47;3.20;;;;;;;37.13;31.94;99808.56;5032583;28;20029;-64
2023/06/11 12:08:06;;;;;;;4.75;3.08;;;;;;;37.11;28.80;99803.25;5038255;28;20021;-65
2023/06/11 12:10:32;;;;;;;7.10;2.90;;;;;;;37.25;31.36;99799.31;5035228;28;20029;-64
2023/06/11 12:12:59;;;;;;;5.25;3.20;;;;;;;36.58;29.62;99801.88;5047648;28;20029;-64